Time;durP1;ratioP1;P1;durP2;ratioP2;P2;SDS_P1;SDS_P2;PMS_P1;PMS_P2;Temp;Humidity;BMP_temperature;BMP_pressure;BME280_temperature;BME280_humidity;BME280_pressure;Samples;Min_cycle;Max_cycle;Signal;HPM_P1;HPM_P2
2022/08/24 00:01:57;;;;;;;7.18;1.50;;;;;;;;;;5065979;28;20055;-67
2022/08/24 00:04:22;;;;;;;4.57;1.33;;;;;;;;;;5071259;28;20024;-65
2022/08/24 00:06:48;;;;;;;3.63;1.55;;;;;;;;;;5071263;28;20063;-65
2022/08/24 00:09:14;;;;;;;15.15;1.90;;;;;;;;;;5070082;28;20078;-65
2022/08/24 00:11:39;;;;;;;6.22;1.60;;;;;;;;;;5072652;28;20112;-65
2022/08/24 00:14:04;;;;;;;3.78;1.40;;;;;;;;;;5073805;28;20055;-65
2022/08/24 00:16:29;;;;;;;4.20;1.42;;;;;;;;;;5070822;28;20032;-65
2022/08/24 00:18:55;;;;;;;7.97;1.30;;;;;;;;;;5064465;28;20098;-65
2022/08/24 00:21:20;;;;;;;3.80;1.50;;;;;;;;;;5072218;28;20048;-65
2022/08/24 00:23:48;;;;;;;5.90;1.30;;;;;;;;;;5069562;28;20036;-65
2022/08/24 00:26:14;;;;;;;4.88;1.60;;;;;;;;;;5071826;28;20120;-64
2022/08/24 00:28:39;;;;;;;7.05;1.85;;;;;;;;;;5068599;28;20103;-65
2022/08/24 00:31:05;;;;;;;3.75;1.58;;;;;;;;;;5070927;28;20028;-65
2022/08/24 00:33:30;;;;;;;5.50;1.50;;;;;;;;;;5068532;28;20469;-64
2022/08/24 00:35:55;;;;;;;4.82;1.50;;;;;;;;;;5066868;28;20047;-64
2022/08/24 00:38:20;;;;;;;4.55;1.40;;;;;;;;;;5064702;28;20025;-64
2022/08/24 00:40:47;;;;;;;5.18;1.30;;;;;;;;;;5068196;28;20083;-65
2022/08/24 00:43:13;;;;;;;5.25;1.60;;;;;;;;;;5071434;28;20376;-65
2022/08/24 00:45:42;;;;;;;9.25;1.60;;;;;;;;;;5069335;28;20025;-64
2022/08/24 00:48:12;;;;;;;6.32;1.70;;;;;;;;;;5072292;28;20158;-65
2022/08/24 00:50:57;;;;;;;4.80;1.60;;;;;;;;;;5071597;28;20099;-65
2022/08/24 00:53:34;;;;;;;6.63;1.33;;;;;;;;;;5065915;28;20068;-65
2022/08/24 00:56:01;;;;;;;8.10;1.38;;;;;;;;;;5066733;28;20028;-65
2022/08/24 00:58:34;;;;;;;5.18;1.40;;;;;;;;;;5071938;28;20028;-65
2022/08/24 01:01:01;;;;;;;6.22;1.60;;;;;;;;;;5068748;28;20111;-65
2022/08/24 01:03:27;;;;;;;5.25;1.50;;;;;;;;;;5069088;28;20040;-65
2022/08/24 01:05:53;;;;;;;4.85;1.42;;;;;;;;;;5070252;28;20036;-64
2022/08/24 01:08:19;;;;;;;2.90;1.38;;;;;;;;;;5069690;28;20047;-65
2022/08/24 01:10:46;;;;;;;7.22;1.70;;;;;;;;;;5064517;28;20070;-65
2022/08/24 01:13:12;;;;;;;3.25;1.10;;;;;;;;;;5052939;28;20379;-65
2022/08/24 01:15:39;;;;;;;4.63;1.60;;;;;;;;;;5060339;28;20106;-65
2022/08/24 01:21:03;;;;;;;6.95;1.50;;;;;;;;;;5059975;28;20503;-65
2022/08/24 01:23:48;;;;;;;6.43;1.77;;;;;;;;;;5057660;28;20044;-65
2022/08/24 01:26:36;;;;;;;4.85;1.70;;;;;;;;;;5068600;28;20077;-64
2022/08/24 01:29:04;;;;;;;7.25;2.08;;;;;;;;;;5053962;28;20020;-65
2022/08/24 01:31:30;;;;;;;5.25;1.60;;;;;;;;;;5063849;28;20052;-65
2022/08/24 01:33:55;;;;;;;5.25;1.42;;;;;;;;;;5071018;28;20041;-65
2022/08/24 01:36:20;;;;;;;5.15;1.45;;;;;;;;;;5066825;28;20052;-65
2022/08/24 01:38:49;;;;;;;4.60;1.52;;;;;;;;;;5071878;28;20031;-65
2022/08/24 01:41:14;;;;;;;6.53;1.60;;;;;;;;;;5069135;28;20353;-65
2022/08/24 01:43:40;;;;;;;7.78;1.90;;;;;;;;;;5071712;28;20058;-65
2022/08/24 01:46:05;;;;;;;4.95;1.60;;;;;;;;;;5068251;28;20043;-65
2022/08/24 01:48:30;;;;;;;6.45;1.60;;;;;;;;;;5067942;28;20021;-65
2022/08/24 01:50:55;;;;;;;5.53;1.60;;;;;;;;;;5071624;28;20039;-65
2022/08/24 01:53:21;;;;;;;6.30;1.50;;;;;;;;;;5069550;28;20040;-65
2022/08/24 01:55:46;;;;;;;9.25;1.70;;;;;;;;;;5069832;28;20472;-64
2022/08/24 01:58:11;;;;;;;5.53;1.60;;;;;;;;;;5070600;28;20036;-65
2022/08/24 02:00:37;;;;;;;4.60;1.55;;;;;;;;;;5062633;28;20021;-65
2022/08/24 02:03:02;;;;;;;3.55;1.40;;;;;;;;;;5069056;28;20024;-65
2022/08/24 02:05:28;;;;;;;5.00;1.90;;;;;;;;;;5069249;28;20032;-67
2022/08/24 02:07:53;;;;;;;4.55;1.98;;;;;;;;;;5060904;28;20465;-65
2022/08/24 02:10:19;;;;;;;3.25;1.60;;;;;;;;;;5067358;28;20016;-65
2022/08/24 02:12:45;;;;;;;5.90;1.77;;;;;;;;;;5071523;28;20024;-65
2022/08/24 02:15:11;;;;;;;4.95;1.77;;;;;;;;;;5069883;28;20118;-65
2022/08/24 02:17:37;;;;;;;7.10;1.90;;;;;;;;;;5070681;28;20046;-65
2022/08/24 02:20:04;;;;;;;6.85;1.60;;;;;;;;;;5064562;28;20481;-65
2022/08/24 02:22:29;;;;;;;5.53;1.77;;;;;;;;;;5067293;28;20032;-65
2022/08/24 02:24:54;;;;;;;5.22;1.60;;;;;;;;;;5067492;28;20044;-65
2022/08/24 02:27:19;;;;;;;6.15;1.85;;;;;;;;;;5071477;28;20536;-65
2022/08/24 02:29:45;;;;;;;6.70;1.70;;;;;;;;;;5069137;28;20070;-65
2022/08/24 02:32:11;;;;;;;6.03;1.65;;;;;;;;;;5065742;28;20154;-66
2022/08/24 02:34:36;;;;;;;7.47;1.92;;;;;;;;;;5062723;28;20025;-65
2022/08/24 02:37:01;;;;;;;30.70;3.13;;;;;;;;;;5061760;28;20033;-64
2022/08/24 02:39:27;;;;;;;8.20;2.25;;;;;;;;;;5068721;28;20025;-64
2022/08/24 02:41:52;;;;;;;6.10;2.40;;;;;;;;;;5062895;28;20138;-65
2022/08/24 02:44:19;;;;;;;6.30;2.00;;;;;;;;;;5068786;28;20016;-65
2022/08/24 02:46:44;;;;;;;6.32;1.88;;;;;;;;;;5064740;28;20028;-65
2022/08/24 02:49:10;;;;;;;4.97;1.60;;;;;;;;;;5069848;28;20032;-65
2022/08/24 02:51:35;;;;;;;4.32;1.50;;;;;;;;;;5068922;28;20025;-65
2022/08/24 02:54:01;;;;;;;6.13;1.85;;;;;;;;;;5069095;28;20055;-65
2022/08/24 02:56:30;;;;;;;5.90;1.80;;;;;;;;;;5064648;28;20012;-65
2022/08/24 02:58:58;;;;;;;4.35;1.80;;;;;;;;;;5066141;28;20074;-65
2022/08/24 03:01:23;;;;;;;5.88;1.90;;;;;;;;;;5063559;28;20044;-65
2022/08/24 03:03:49;;;;;;;4.55;1.92;;;;;;;;;;5067945;28;20105;-65
2022/08/24 03:06:14;;;;;;;5.03;1.50;;;;;;;;;;5064437;28;20028;-65
2022/08/24 03:08:40;;;;;;;5.50;1.67;;;;;;;;;;5062060;28;20066;-65
2022/08/24 03:11:07;;;;;;;8.15;2.22;;;;;;;;;;5065799;28;20025;-65
2022/08/24 03:13:32;;;;;;;6.63;1.88;;;;;;;;;;5061934;28;20012;-65
2022/08/24 03:15:58;;;;;;;5.70;1.80;;;;;;;;;;5064444;28;21849;-65
2022/08/24 03:18:25;;;;;;;6.60;1.83;;;;;;;;;;5066365;28;20020;-65
2022/08/24 03:20:51;;;;;;;8.32;1.80;;;;;;;;;;5067483;28;20390;-65
2022/08/24 03:23:16;;;;;;;4.35;1.50;;;;;;;;;;5069366;28;20021;-65
2022/08/24 03:25:41;;;;;;;5.88;1.80;;;;;;;;;;5065332;28;20024;-65
2022/08/24 03:28:07;;;;;;;6.30;1.98;;;;;;;;;;5067512;28;20433;-65
2022/08/24 03:30:32;;;;;;;7.00;2.00;;;;;;;;;;5061620;28;20694;-65
2022/08/24 03:32:58;;;;;;;6.30;2.00;;;;;;;;;;5070745;28;20116;-65
2022/08/24 03:35:24;;;;;;;10.15;2.00;;;;;;;;;;5067545;28;20431;-65
2022/08/24 03:37:49;;;;;;;9.23;1.98;;;;;;;;;;5068400;28;20050;-64
2022/08/24 03:40:15;;;;;;;7.63;2.08;;;;;;;;;;5063935;28;20028;-65
2022/08/24 03:42:40;;;;;;;5.10;1.83;;;;;;;;;;5068945;28;20024;-66
2022/08/24 03:45:06;;;;;;;6.82;2.05;;;;;;;;;;5063009;28;20483;-64
2022/08/24 03:47:31;;;;;;;5.78;2.00;;;;;;;;;;5063954;28;20043;-65
2022/08/24 03:49:57;;;;;;;6.65;1.88;;;;;;;;;;5065932;28;20154;-65
2022/08/24 03:52:22;;;;;;;8.63;2.10;;;;;;;;;;5061684;28;20098;-65
2022/08/24 03:54:47;;;;;;;6.50;2.17;;;;;;;;;;5063223;28;20027;-65
2022/08/24 03:57:13;;;;;;;5.15;2.10;;;;;;;;;;5066973;28;20047;-65
2022/08/24 03:59:38;;;;;;;8.23;2.20;;;;;;;;;;5068475;28;20508;-65
2022/08/24 04:02:03;;;;;;;5.15;1.90;;;;;;;;;;5064471;28;20028;-65
2022/08/24 04:04:30;;;;;;;7.45;2.40;;;;;;;;;;5065168;28;20029;-65
2022/08/24 04:06:56;;;;;;;6.53;1.70;;;;;;;;;;5067826;28;20028;-65
2022/08/24 04:09:22;;;;;;;8.60;2.10;;;;;;;;;;5066279;28;20035;-65
2022/08/24 04:11:47;;;;;;;6.10;2.10;;;;;;;;;;5068618;28;20111;-65
2022/08/24 04:14:14;;;;;;;5.40;1.95;;;;;;;;;;5070963;28;20021;-65
2022/08/24 04:16:39;;;;;;;7.43;2.10;;;;;;;;;;5067155;28;20024;-66
2022/08/24 04:19:04;;;;;;;6.43;2.00;;;;;;;;;;5070692;28;20365;-66
2022/08/24 04:21:31;;;;;;;9.68;2.30;;;;;;;;;;5061467;28;20414;-67
2022/08/24 04:23:57;;;;;;;5.03;2.13;;;;;;;;;;5066075;28;20165;-65
2022/08/24 04:26:23;;;;;;;7.18;2.13;;;;;;;;;;5069787;28;20035;-65
2022/08/24 04:28:49;;;;;;;4.57;2.17;;;;;;;;;;5070308;28;20490;-65
2022/08/24 04:31:17;;;;;;;6.85;2.35;;;;;;;;;;5067849;28;20107;-65
2022/08/24 04:33:42;;;;;;;9.40;2.35;;;;;;;;;;5068518;28;20023;-65
2022/08/24 04:36:08;;;;;;;7.55;2.10;;;;;;;;;;5068720;28;20032;-65
2022/08/24 04:38:34;;;;;;;6.90;2.20;;;;;;;;;;5063769;28;20384;-65
2022/08/24 04:41:01;;;;;;;10.70;2.58;;;;;;;;;;5064432;28;20035;-65
2022/08/24 04:43:27;;;;;;;5.70;1.90;;;;;;;;;;5070715;28;20036;-66
2022/08/24 04:45:52;;;;;;;4.18;2.20;;;;;;;;;;5059769;28;20017;-65
2022/08/24 04:48:17;;;;;;;7.25;2.25;;;;;;;;;;5071129;28;20024;-65
2022/08/24 04:50:43;;;;;;;6.22;2.30;;;;;;;;;;5067738;28;20377;-65
2022/08/24 04:53:09;;;;;;;6.22;2.30;;;;;;;;;;5060311;28;20028;-65
2022/08/24 04:55:42;;;;;;;7.30;2.50;;;;;;;;;;5066946;28;20040;-65
2022/08/24 04:58:08;;;;;;;5.70;2.00;;;;;;;;;;5065850;28;20488;-65
2022/08/24 05:00:33;;;;;;;4.68;2.10;;;;;;;;;;5058927;28;20025;-65
2022/08/24 05:02:58;;;;;;;6.63;2.20;;;;;;;;;;5067272;28;20457;-65
2022/08/24 05:05:23;;;;;;;7.22;2.47;;;;;;;;;;5070896;28;20457;-65
2022/08/24 05:07:49;;;;;;;6.47;2.10;;;;;;;;;;5069795;28;20469;-65
2022/08/24 05:10:14;;;;;;;11.43;2.25;;;;;;;;;;5058315;28;20044;-66
2022/08/24 05:12:40;;;;;;;8.82;2.60;;;;;;;;;;5061263;28;20008;-65
2022/08/24 05:15:05;;;;;;;6.38;2.10;;;;;;;;;;5062301;28;20062;-66
2022/08/24 05:17:31;;;;;;;5.60;2.45;;;;;;;;;;5064403;28;20538;-66
2022/08/24 05:19:57;;;;;;;5.60;2.25;;;;;;;;;;5063099;28;20032;-66
2022/08/24 05:22:22;;;;;;;7.65;2.22;;;;;;;;;;5069197;28;20025;-65
2022/08/24 05:24:47;;;;;;;8.20;2.30;;;;;;;;;;5069548;28;20629;-66
2022/08/24 05:27:13;;;;;;;6.47;2.22;;;;;;;;;;5071617;28;20040;-65
2022/08/24 05:29:38;;;;;;;5.47;2.10;;;;;;;;;;5072885;28;20027;-66
2022/08/24 05:32:04;;;;;;;7.55;1.95;;;;;;;;;;5067025;28;20078;-65
2022/08/24 05:34:29;;;;;;;5.20;1.65;;;;;;;;;;5067606;28;20024;-66
2022/08/24 05:36:54;;;;;;;5.50;2.00;;;;;;;;;;5069999;28;20032;-66
2022/08/24 05:39:20;;;;;;;5.88;2.00;;;;;;;;;;5063515;28;20036;-66
2022/08/24 05:41:46;;;;;;;6.15;1.95;;;;;;;;;;5072420;28;20111;-66
2022/08/24 05:44:12;;;;;;;6.00;2.03;;;;;;;;;;5067580;28;20480;-65
2022/08/24 05:46:37;;;;;;;5.80;2.05;;;;;;;;;;5069341;28;20051;-66
2022/08/24 05:49:03;;;;;;;5.38;1.85;;;;;;;;;;5069887;28;20052;-66
2022/08/24 05:51:29;;;;;;;6.72;2.30;;;;;;;;;;5072669;28;20020;-66
2022/08/24 05:53:55;;;;;;;7.63;1.90;;;;;;;;;;5072476;28;20089;-66
2022/08/24 05:56:20;;;;;;;8.65;2.10;;;;;;;;;;5072417;28;20030;-66
2022/08/24 05:58:46;;;;;;;7.80;2.05;;;;;;;;;;5072643;28;20032;-66
2022/08/24 06:01:11;;;;;;;6.97;1.98;;;;;;;;;;5060373;28;20024;-66
2022/08/24 06:03:37;;;;;;;5.38;1.83;;;;;;;;;;5072382;28;20103;-66
2022/08/24 06:06:04;;;;;;;9.23;2.20;;;;;;;;;;5072095;28;20020;-67
2022/08/24 06:08:30;;;;;;;4.28;1.95;;;;;;;;;;5072359;28;20095;-67
2022/08/24 06:10:55;;;;;;;10.27;3.03;;;;;;;;;;5072026;28;20048;-66
2022/08/24 06:13:20;;;;;;;5.80;1.88;;;;;;;;;;5072050;28;20012;-66
2022/08/24 06:15:45;;;;;;;6.53;2.20;;;;;;;;;;5071978;28;20058;-66
2022/08/24 06:18:11;;;;;;;8.07;2.10;;;;;;;;;;5071618;28;20021;-67
2022/08/24 06:20:37;;;;;;;8.23;2.20;;;;;;;;;;5071927;28;20069;-67
2022/08/24 06:23:03;;;;;;;15.23;2.22;;;;;;;;;;5054822;28;20021;-66
2022/08/24 06:28:12;;;;;;;6.43;2.30;;;;;;;;;;5071875;28;20460;-66
2022/08/24 06:30:37;;;;;;;8.70;2.10;;;;;;;;;;5071696;28;20017;-67
2022/08/24 06:33:03;;;;;;;10.45;2.03;;;;;;;;;;5071903;28;20020;-66
2022/08/24 06:35:28;;;;;;;10.38;2.00;;;;;;;;;;5070995;28;20107;-66
2022/08/24 06:37:54;;;;;;;8.45;2.20;;;;;;;;;;5072002;28;20476;-66
2022/08/24 06:40:19;;;;;;;9.20;1.67;;;;;;;;;;5071890;28;20070;-66
2022/08/24 06:42:45;;;;;;;11.80;1.77;;;;;;;;;;5071639;28;20025;-66
2022/08/24 06:45:10;;;;;;;7.40;1.73;;;;;;;;;;5072612;28;20352;-66
2022/08/24 06:47:35;;;;;;;6.22;1.70;;;;;;;;;;5071418;28;20056;-67
2022/08/24 06:50:01;;;;;;;5.15;1.63;;;;;;;;;;5071047;28;20358;-66
2022/08/24 06:52:26;;;;;;;6.30;2.17;;;;;;;;;;5071362;28;20650;-67
2022/08/24 06:54:52;;;;;;;5.60;1.63;;;;;;;;;;5071501;28;20047;-66
2022/08/24 06:57:17;;;;;;;7.47;1.88;;;;;;;;;;5071596;28;20039;-67
2022/08/24 06:59:43;;;;;;;9.50;1.95;;;;;;;;;;5071396;28;20020;-66
2022/08/24 07:02:09;;;;;;;6.20;1.65;;;;;;;;;;5071661;28;20436;-66
2022/08/24 07:04:34;;;;;;;8.18;1.35;;;;;;;;;;5071416;28;20058;-67
2022/08/24 07:06:59;;;;;;;7.03;1.50;;;;;;;;;;5071338;28;20024;-67
2022/08/24 07:09:26;;;;;;;6.13;1.58;;;;;;;;;;5071431;28;20024;-67
2022/08/24 07:11:51;;;;;;;8.05;1.70;;;;;;;;;;5071233;28;20041;-67
2022/08/24 07:14:17;;;;;;;8.82;1.50;;;;;;;;;;5070499;28;20115;-67
2022/08/24 07:16:42;;;;;;;5.22;1.77;;;;;;;;;;5071577;28;20020;-67
2022/08/24 07:19:08;;;;;;;5.72;1.40;;;;;;;;;;5091490;28;20031;-67
2022/08/24 07:21:33;;;;;;;5.20;1.58;;;;;;;;;;5091615;28;20036;-67
2022/08/24 07:23:59;;;;;;;6.82;1.70;;;;;;;;;;5091112;28;20020;-66
2022/08/24 07:26:26;;;;;;;4.03;1.42;;;;;;;;;;5091023;28;20043;-66
2022/08/24 07:28:52;;;;;;;7.93;1.50;;;;;;;;;;5093987;28;20464;-66
2022/08/24 07:31:17;;;;;;;8.70;1.73;;;;;;;;;;5091628;28;20038;-67
2022/08/24 07:33:43;;;;;;;6.75;1.70;;;;;;;;;;5091353;28;20095;-67
2022/08/24 07:36:09;;;;;;;10.00;1.60;;;;;;;;;;5091521;28;20024;-66
2022/08/24 07:38:34;;;;;;;13.50;1.60;;;;;;;;;;5091624;28;20028;-66
2022/08/24 07:40:59;;;;;;;6.40;1.50;;;;;;;;;;5091197;28;20697;-67
2022/08/24 07:43:25;;;;;;;6.50;1.50;;;;;;;;;;5091000;28;20410;-67
2022/08/24 07:45:51;;;;;;;7.40;1.40;;;;;;;;;;5091045;28;20039;-67
2022/08/24 07:48:16;;;;;;;6.97;1.60;;;;;;;;;;5094526;28;20024;-67
2022/08/24 07:50:42;;;;;;;12.48;1.73;;;;;;;;;;5094938;28;20110;-67
2022/08/24 07:53:07;;;;;;;8.05;1.48;;;;;;;;;;5094843;28;20012;-66
2022/08/24 07:55:32;;;;;;;13.82;1.75;;;;;;;;;;5095265;28;20028;-66
2022/08/24 07:57:58;;;;;;;7.05;1.30;;;;;;;;;;5095172;28;20028;-67
2022/08/24 08:00:24;;;;;;;4.93;1.35;;;;;;;;;;5093998;28;20102;-65
2022/08/24 08:02:50;;;;;;;6.75;1.20;;;;;;;;;;5093507;28;20027;-66
2022/08/24 08:05:17;;;;;;;8.13;1.38;;;;;;;;;;5094451;28;20118;-66
2022/08/24 08:07:42;;;;;;;7.95;1.42;;;;;;;;;;5094575;28;20020;-66
2022/08/24 08:10:08;;;;;;;10.38;1.27;;;;;;;;;;5094681;28;20092;-66
2022/08/24 08:12:34;;;;;;;6.05;1.40;;;;;;;;;;5094976;28;20067;-66
2022/08/24 08:14:59;;;;;;;6.55;1.40;;;;;;;;;;5094969;28;20055;-67
2022/08/24 08:17:24;;;;;;;8.30;1.50;;;;;;;;;;5096693;28;20031;-67
2022/08/24 08:19:50;;;;;;;5.32;1.30;;;;;;;;;;5094398;28;20031;-67
2022/08/24 08:24:59;;;;;;;7.75;1.27;;;;;;;;;;5095132;28;20031;-66
2022/08/24 08:27:24;;;;;;;6.55;1.48;;;;;;;;;;5096379;28;20016;-66
2022/08/24 08:29:50;;;;;;;6.15;1.42;;;;;;;;;;5095147;28;20028;-66
2022/08/24 08:32:16;;;;;;;5.10;1.30;;;;;;;;;;5094801;28;20016;-67
2022/08/24 08:34:44;;;;;;;7.35;1.50;;;;;;;;;;5094436;28;20024;-66
2022/08/24 08:37:10;;;;;;;5.50;1.15;;;;;;;;;;5094380;28;20020;-66
2022/08/24 08:39:35;;;;;;;6.45;1.33;;;;;;;;;;5094854;28;20020;-66
2022/08/24 08:42:19;;;;;;;5.13;1.30;;;;;;;;;;5095467;28;20426;-67
2022/08/24 08:44:59;;;;;;;3.47;1.20;;;;;;;;;;5094286;28;20031;-67
2022/08/24 08:47:29;;;;;;;6.90;1.40;;;;;;;;;;5078059;28;20027;-66
2022/08/24 08:50:13;;;;;;;6.75;1.30;;;;;;;;;;5094621;28;20460;-66
2022/08/24 08:52:47;;;;;;;5.78;1.40;;;;;;;;;;5098032;28;20030;-66
2022/08/24 08:55:29;;;;;;;5.90;1.23;;;;;;;;;;5093556;28;20073;-66
2022/08/24 08:58:13;;;;;;;3.70;1.23;;;;;;;;;;5094774;28;20028;-66
2022/08/24 09:00:49;;;;;;;5.53;1.40;;;;;;;;;;5093970;28;20020;-66
2022/08/24 09:03:26;;;;;;;5.75;1.30;;;;;;;;;;5096941;28;20020;-67
2022/08/24 09:06:09;;;;;;;5.93;1.25;;;;;;;;;;5093713;28;20027;-67
2022/08/24 09:08:53;;;;;;;5.35;1.40;;;;;;;;;;5093654;28;20431;-67
2022/08/24 09:11:40;;;;;;;6.82;1.48;;;;;;;;;;5094377;28;20024;-67
2022/08/24 09:14:21;;;;;;;6.70;1.30;;;;;;;;;;5094750;28;20031;-67
2022/08/24 09:16:49;;;;;;;7.43;1.52;;;;;;;;;;5076942;28;20020;-67
2022/08/24 09:19:20;;;;;;;4.38;1.20;;;;;;;;;;5096748;28;20034;-66
2022/08/24 09:21:48;;;;;;;5.07;1.30;;;;;;;;;;5093731;28;20372;-66
2022/08/24 09:24:14;;;;;;;7.22;1.50;;;;;;;;;;5096259;28;20016;-66
2022/08/24 09:26:54;;;;;;;5.97;1.33;;;;;;;;;;5093553;28;20023;-67
2022/08/24 09:29:40;;;;;;;5.72;1.50;;;;;;;;;;5096863;28;20020;-67
2022/08/24 09:32:26;;;;;;;2.97;1.10;;;;;;;;;;5094273;28;20036;-67
2022/08/24 09:34:58;;;;;;;8.02;1.50;;;;;;;;;;5093874;28;20048;-67
2022/08/24 09:37:32;;;;;;;14.40;1.40;;;;;;;;;;5095411;28;20046;-67
2022/08/24 09:40:00;;;;;;;10.23;1.52;;;;;;;;;;5096411;28;20444;-67
2022/08/24 09:42:25;;;;;;;3.63;1.33;;;;;;;;;;5095135;28;20020;-67
2022/08/24 09:45:09;;;;;;;4.77;1.30;;;;;;;;;;5094470;28;20030;-67
2022/08/24 09:47:50;;;;;;;3.60;1.30;;;;;;;;;;5097594;28;20492;-67
2022/08/24 09:50:25;;;;;;;6.68;1.48;;;;;;;;;;5097940;28;20031;-67
2022/08/24 09:53:00;;;;;;;8.50;1.50;;;;;;;;;;5098250;28;20428;-66
2022/08/24 09:55:31;;;;;;;4.65;1.40;;;;;;;;;;5096158;28;20024;-66
2022/08/24 09:58:09;;;;;;;4.80;1.33;;;;;;;;;;5095778;28;20024;-67
2022/08/24 10:00:43;;;;;;;4.47;1.40;;;;;;;;;;5095708;28;20417;-67
2022/08/24 10:03:22;;;;;;;8.77;1.75;;;;;;;;;;5095601;28;20020;-67
2022/08/24 10:05:49;;;;;;;5.28;1.38;;;;;;;;;;5092301;28;20024;-67
2022/08/24 10:08:21;;;;;;;6.07;1.30;;;;;;;;;;5074340;28;20507;-67
2022/08/24 10:10:50;;;;;;;3.90;1.30;;;;;;;;;;5092943;28;20074;-67
2022/08/24 10:13:27;;;;;;;6.82;1.40;;;;;;;;;;5092880;28;20094;-67
2022/08/24 10:16:11;;;;;;;3.58;1.33;;;;;;;;;;5094660;28;20079;-67
2022/08/24 10:18:42;;;;;;;7.53;1.55;;;;;;;;;;5095713;28;20182;-67
2022/08/24 10:21:17;;;;;;;4.18;1.70;;;;;;;;;;5096801;28;20639;-66
2022/08/24 10:24:01;;;;;;;6.15;1.55;;;;;;;;;;5094886;28;20594;-66
2022/08/24 10:26:39;;;;;;;5.75;1.50;;;;;;;;;;5080246;28;20166;-66
2022/08/24 10:29:13;;;;;;;7.60;1.33;;;;;;;;;;5071425;28;20100;-66
2022/08/24 10:31:38;;;;;;;7.20;1.60;;;;;;;;;;5072259;28;20017;-67
2022/08/24 10:34:24;;;;;;;4.03;1.30;;;;;;;;;;5086477;28;20638;-66
2022/08/24 10:36:52;;;;;;;5.63;1.70;;;;;;;;;;5050334;28;20258;-66
2022/08/24 10:39:42;;;;;;;4.80;1.52;;;;;;;;;;5092052;28;20016;-66
2022/08/24 10:43:32;;;;;;;6.22;1.70;;;;;;;;;;5092217;28;20365;-67
2022/08/24 10:45:11;;;;;;;6.72;1.90;;;;;;;;;;5091448;28;20028;-66
2022/08/24 10:47:41;;;;;;;5.18;1.30;;;;;;;;;;5091791;28;20361;-67
2022/08/24 10:50:07;;;;;;;;;;;;;;;;;;5091627;28;20047;-67
2022/08/24 10:52:52;;;;;;;5.13;1.52;;;;;;;;;;5092009;28;19954;-67
2022/08/24 10:55:29;;;;;;;6.38;1.80;;;;;;;;;;5091443;28;20032;-66
2022/08/24 10:57:54;;;;;;;5.68;1.83;;;;;;;;;;5078674;28;20485;-66
2022/08/24 11:00:21;;;;;;;8.07;1.63;;;;;;;;;;5091421;28;20024;-66
2022/08/24 11:02:46;;;;;;;7.05;1.50;;;;;;;;;;5091832;28;20413;-67
2022/08/24 11:05:14;;;;;;;5.88;1.58;;;;;;;;;;5091386;28;20054;-66
2022/08/24 11:08:00;;;;;;;8.60;1.35;;;;;;;;;;5091256;28;20027;-66
2022/08/24 11:10:27;;;;;;;5.80;1.60;;;;;;;;;;5090716;28;20052;-67
2022/08/24 11:12:52;;;;;;;4.30;1.50;;;;;;;;;;5090889;28;20012;-66
2022/08/24 11:15:17;;;;;;;6.03;1.60;;;;;;;;;;5091762;28;20388;-66
2022/08/24 11:18:12;;;;;;;6.23;1.60;;;;;;;;;;5091820;28;20016;-66
2022/08/24 11:20:41;;;;;;;4.68;1.52;;;;;;;;;;5078269;28;20618;-67
2022/08/24 11:23:17;;;;;;;5.90;1.48;;;;;;;;;;5097852;28;20102;-66
2022/08/24 11:25:54;;;;;;;7.63;1.48;;;;;;;;;;5095619;28;20033;-66
2022/08/24 11:28:24;;;;;;;8.40;1.80;;;;;;;;;;5086600;28;20016;-66
2022/08/24 11:30:49;;;;;;;6.70;1.70;;;;;;;;;;5075418;28;20473;-66
2022/08/24 11:33:26;;;;;;;8.07;1.88;;;;;;;;;;5075365;28;20027;-66
2022/08/24 11:35:51;;;;;;;6.05;1.85;;;;;;;;;;5075029;28;20017;-66
2022/08/24 11:38:21;;;;;;;7.22;1.77;;;;;;;;;;5075228;28;20020;-66
2022/08/24 11:40:49;;;;;;;4.70;1.80;;;;;;;;;;5079163;28;20024;-66
2022/08/24 11:43:14;;;;;;;6.50;2.38;;;;;;;;;;5095447;28;20043;-66
2022/08/24 11:45:55;;;;;;;4.30;1.80;;;;;;;;;;5094941;28;20059;-66
2022/08/24 11:48:34;;;;;;;7.10;1.90;;;;;;;;;;5095702;28;20238;-66
2022/08/24 11:51:20;;;;;;;7.53;1.80;;;;;;;;;;5095144;28;20032;-66
2022/08/24 11:53:45;;;;;;;8.75;2.22;;;;;;;;;;5080537;28;20488;-65
2022/08/24 11:56:18;;;;;;;10.30;1.90;;;;;;;;;;5094970;28;20115;-66
2022/08/24 11:58:52;;;;;;;5.63;1.90;;;;;;;;;;5094599;28;20284;-66
2022/08/24 12:01:22;;;;;;;6.68;1.50;;;;;;;;;;5074903;28;20044;-66
2022/08/24 12:03:47;;;;;;;3.90;1.20;;;;;;;;;;5074619;28;20611;-65
2022/08/24 12:06:15;;;;;;;5.50;1.52;;;;;;;;;;5074603;28;20029;-66
2022/08/24 12:08:54;;;;;;;4.30;1.40;;;;;;;;;;5074365;28;20116;-66
2022/08/24 12:11:37;;;;;;;5.38;1.30;;;;;;;;;;5074599;28;20361;-66
2022/08/24 12:14:21;;;;;;;5.03;1.50;;;;;;;;;;5074577;28;20107;-66
2022/08/24 12:16:53;;;;;;;4.88;1.50;;;;;;;;;;5094928;28;20015;-66
2022/08/24 12:19:24;;;;;;;6.13;1.50;;;;;;;;;;5096920;28;20016;-66
2022/08/24 12:21:52;;;;;;;4.70;1.25;;;;;;;;;;5094363;28;20020;-66
2022/08/24 12:24:30;;;;;;;4.90;1.05;;;;;;;;;;5094308;28;20031;-68
2022/08/24 12:27:01;;;;;;;3.78;1.00;;;;;;;;;;5094194;28;20023;-66
2022/08/24 12:29:29;;;;;;;3.55;1.17;;;;;;;;;;5094255;28;20051;-66
2022/08/24 12:31:56;;;;;;;4.90;1.05;;;;;;;;;;5094005;28;20020;-66
2022/08/24 12:34:26;;;;;;;5.72;1.20;;;;;;;;;;5093823;28;20044;-66
2022/08/24 12:37:01;;;;;;;2.90;1.10;;;;;;;;;;5094169;28;20016;-66
2022/08/24 12:39:30;;;;;;;3.88;0.93;;;;;;;;;;5093946;28;20028;-66
2022/08/24 12:42:14;;;;;;;8.20;1.30;;;;;;;;;;5093929;28;20046;-66
2022/08/24 12:44:44;;;;;;;7.38;1.23;;;;;;;;;;5094197;28;20273;-66
2022/08/24 12:47:10;;;;;;;5.75;1.10;;;;;;;;;;5094214;28;20024;-66
2022/08/24 12:49:47;;;;;;;4.22;1.20;;;;;;;;;;5093700;28;20103;-65
2022/08/24 12:52:25;;;;;;;3.97;1.25;;;;;;;;;;5094054;28;20081;-66
2022/08/24 12:54:59;;;;;;;3.67;1.30;;;;;;;;;;5094043;28;20028;-66
2022/08/24 12:57:43;;;;;;;7.05;1.30;;;;;;;;;;5093851;28;20032;-66
2022/08/24 13:00:35;;;;;;;6.70;1.30;;;;;;;;;;5093658;28;20021;-66
2022/08/24 13:03:03;;;;;;;7.80;1.42;;;;;;;;;;5076742;28;20054;-66
2022/08/24 13:05:39;;;;;;;3.40;1.30;;;;;;;;;;5092794;28;20024;-66
2022/08/24 13:08:09;;;;;;;5.35;1.48;;;;;;;;;;5093600;28;20038;-66
2022/08/24 13:10:50;;;;;;;6.15;1.40;;;;;;;;;;5093517;28;20336;-66
2022/08/24 13:13:21;;;;;;;5.07;1.20;;;;;;;;;;5093041;28;20027;-66
2022/08/24 13:15:46;;;;;;;5.00;1.48;;;;;;;;;;5097278;28;20029;-66
2022/08/24 13:18:11;;;;;;;6.50;1.33;;;;;;;;;;5107225;28;20028;-66
2022/08/24 13:20:53;;;;;;;4.77;1.40;;;;;;;;;;5093598;28;20422;-66
2022/08/24 13:23:23;;;;;;;4.38;1.60;;;;;;;;;;5093250;28;20247;-66
2022/08/24 13:25:51;;;;;;;5.63;1.50;;;;;;;;;;5093173;28;20027;-66
2022/08/24 13:28:20;;;;;;;7.22;1.60;;;;;;;;;;5092923;28;20035;-66
2022/08/24 13:31:01;;;;;;;6.18;1.33;;;;;;;;;;5092945;28;20020;-66
2022/08/24 13:33:36;;;;;;;6.57;1.67;;;;;;;;;;5093448;28;20020;-66
2022/08/24 13:36:16;;;;;;;5.18;1.33;;;;;;;;;;5074727;28;20019;-66
2022/08/24 13:38:59;;;;;;;4.90;1.50;;;;;;;;;;5093464;28;20453;-66
2022/08/24 13:41:27;;;;;;;5.20;1.50;;;;;;;;;;5093103;28;20024;-66
2022/08/24 13:44:05;;;;;;;5.78;1.40;;;;;;;;;;5092411;28;20046;-65
2022/08/24 13:46:38;;;;;;;4.18;1.30;;;;;;;;;;5093022;28;20035;-65
2022/08/24 13:49:22;;;;;;;5.13;1.42;;;;;;;;;;5093005;28;20016;-65
2022/08/24 13:51:50;;;;;;;6.57;1.50;;;;;;;;;;5092764;28;20023;-65
2022/08/24 13:54:16;;;;;;;6.88;1.55;;;;;;;;;;5092709;28;20052;-65
2022/08/24 13:56:53;;;;;;;5.57;1.37;;;;;;;;;;5092701;28;20039;-66
2022/08/24 13:59:34;;;;;;;8.13;1.60;;;;;;;;;;5096727;28;20245;-66
2022/08/24 14:02:09;;;;;;;5.32;1.40;;;;;;;;;;5095663;28;20066;-66
2022/08/24 14:04:38;;;;;;;5.82;1.45;;;;;;;;;;5091924;28;20028;-66
2022/08/24 14:07:09;;;;;;;7.85;1.50;;;;;;;;;;5092517;28;20022;-66
2022/08/24 14:09:53;;;;;;;4.18;1.60;;;;;;;;;;5092560;28;20208;-66
2022/08/24 14:12:18;;;;;;;6.68;1.77;;;;;;;;;;5092625;28;20503;-65
2022/08/24 14:14:56;;;;;;;3.40;1.40;;;;;;;;;;5092787;28;20024;-65
2022/08/24 14:20:31;;;;;;;4.10;1.30;;;;;;;;;;5092495;28;20055;-66
2022/08/24 14:23:15;;;;;;;6.88;1.45;;;;;;;;;;5092085;28;20016;-66
2022/08/24 14:25:40;;;;;;;5.97;1.40;;;;;;;;;;5092142;28;20024;-65
2022/08/24 14:28:24;;;;;;;5.20;1.50;;;;;;;;;;5092086;28;20024;-65
2022/08/24 14:31:08;;;;;;;3.10;1.30;;;;;;;;;;5091873;28;20020;-65
2022/08/24 14:33:34;;;;;;;5.43;1.55;;;;;;;;;;5091714;28;20042;-65
2022/08/24 14:36:10;;;;;;;5.05;1.40;;;;;;;;;;5092198;28;20024;-65
2022/08/24 14:38:52;;;;;;;4.72;1.40;;;;;;;;;;5091869;28;20055;-66
2022/08/24 14:41:21;;;;;;;6.25;1.60;;;;;;;;;;5091934;28;20016;-66
2022/08/24 14:44:09;;;;;;;5.32;1.40;;;;;;;;;;5092129;28;20433;-66
2022/08/24 14:46:38;;;;;;;5.60;1.30;;;;;;;;;;5091600;28;20020;-66
2022/08/24 14:49:22;;;;;;;5.65;1.50;;;;;;;;;;5084889;28;20024;-66
2022/08/24 14:52:05;;;;;;;4.65;1.40;;;;;;;;;;5085617;28;20035;-66
2022/08/24 14:54:37;;;;;;;4.05;1.30;;;;;;;;;;5086295;28;20024;-65
2022/08/24 14:57:28;;;;;;;4.68;1.55;;;;;;;;;;5077766;28;20020;-65
2022/08/24 14:59:54;;;;;;;4.82;1.42;;;;;;;;;;5084501;28;20531;-65
2022/08/24 15:02:28;;;;;;;5.55;1.40;;;;;;;;;;5084383;28;20019;-65
2022/08/24 15:05:12;;;;;;;7.15;1.60;;;;;;;;;;5088176;28;20027;-65
2022/08/24 15:07:40;;;;;;;3.92;1.30;;;;;;;;;;5086386;28;20432;-65
2022/08/24 15:10:13;;;;;;;6.57;1.50;;;;;;;;;;5092803;28;20027;-66